Time;durP1;ratioP1;P1;durP2;ratioP2;P2;SDS_P1;SDS_P2;PMS_P1;PMS_P2;Temp;Humidity;BMP_temperature;BMP_pressure;BME280_temperature;BME280_humidity;BME280_pressure;Samples;Min_cycle;Max_cycle;Signal;HPM_P1;HPM_P2
2022/07/15 00:00:51;;;;;;;7.53;2.88;;;15.50;92.10;;;;;;5012757;28;20026;-79
2022/07/15 00:03:17;;;;;;;4.03;1.40;;;15.30;92.50;;;;;;5013045;28;20065;-80
2022/07/15 00:05:45;;;;;;;4.50;1.50;;;15.20;92.90;;;;;;5012891;28;20030;-80
2022/07/15 00:08:11;;;;;;;4.63;1.60;;;15.10;93.10;;;;;;5013323;28;20048;-80
2022/07/15 00:10:37;;;;;;;3.30;1.27;;;15.10;93.70;;;;;;5025467;28;20074;-80
2022/07/15 00:13:03;;;;;;;3.15;1.45;;;15.00;93.70;;;;;;5036039;28;20013;-79
2022/07/15 00:15:31;;;;;;;2.67;1.70;;;14.80;94.20;;;;;;5013330;28;20046;-79
2022/07/15 00:18:01;;;;;;;3.85;1.60;;;14.90;94.20;;;;;;5016936;28;20041;-80
2022/07/15 00:20:33;;;;;;;5.90;1.97;;;14.90;94.30;;;;;;5025845;28;20030;-80
2022/07/15 00:23:04;;;;;;;4.68;1.50;;;14.90;94.60;;;;;;5023869;28;20479;-79
2022/07/15 00:25:30;;;;;;;3.63;1.50;;;14.80;94.80;;;;;;5012355;28;20026;-80
2022/07/15 00:27:59;;;;;;;4.28;2.10;;;14.60;95.30;;;;;;5013275;28;20042;-81
2022/07/15 00:30:35;;;;;;;4.32;2.10;;;14.60;95.60;;;;;;4996548;28;20038;-81
2022/07/15 00:33:02;;;;;;;2.85;1.80;;;14.50;95.70;;;;;;5013113;28;20042;-80
2022/07/15 00:35:29;;;;;;;5.72;1.80;;;14.60;96.00;;;;;;5012114;28;20454;-81
2022/07/15 00:37:55;;;;;;;3.85;2.10;;;14.60;95.80;;;;;;5012392;28;20038;-80
2022/07/15 00:40:23;;;;;;;5.05;1.95;;;14.50;96.60;;;;;;4995200;28;20065;-80
2022/07/15 00:42:49;;;;;;;3.65;1.63;;;14.50;96.30;;;;;;5011935;28;20498;-80
2022/07/15 00:45:21;;;;;;;3.95;2.13;;;14.40;96.40;;;;;;5011203;28;20041;-80
2022/07/15 00:47:50;;;;;;;4.35;2.28;;;14.30;96.60;;;;;;5013625;28;20045;-81
2022/07/15 00:50:19;;;;;;;4.65;2.17;;;14.10;97.10;;;;;;4995734;28;20043;-81
2022/07/15 00:52:50;;;;;;;4.15;2.30;;;14.10;97.60;;;;;;5013246;28;20037;-80
2022/07/15 00:55:17;;;;;;;;;;;14.20;97.40;;;;;;5012091;28;20030;-80
2022/07/15 00:57:44;;;;;;;2.83;1.75;;;14.20;96.70;;;;;;5013084;28;19924;-80
2022/07/15 01:00:13;;;;;;;4.05;2.15;;;14.10;97.40;;;;;;5012728;28;20041;-80
2022/07/15 01:02:42;;;;;;;3.60;2.20;;;13.90;98.40;;;;;;4999372;28;20049;-80
2022/07/15 01:05:10;;;;;;;3.22;1.83;;;14.00;98.50;;;;;;5008411;28;20038;-80
2022/07/15 01:07:38;;;;;;;3.85;1.95;;;14.00;98.20;;;;;;5012288;28;20050;-80
2022/07/15 01:10:06;;;;;;;3.25;2.15;;;13.90;98.90;;;;;;5010825;28;20037;-80
2022/07/15 01:12:34;;;;;;;2.78;1.83;;;13.70;99.30;;;;;;5011074;28;20064;-80
2022/07/15 01:15:00;;;;;;;6.10;2.47;;;13.70;99.50;;;;;;5010681;28;20033;-80
2022/07/15 01:17:27;;;;;;;2.97;1.85;;;13.60;99.80;;;;;;5005372;28;20422;-80
2022/07/15 01:19:53;;;;;;;4.88;1.77;;;13.60;99.90;;;;;;5010685;28;20038;-80
2022/07/15 01:22:21;;;;;;;4.50;2.65;;;13.70;99.90;;;;;;5014821;28;20038;-80
2022/07/15 01:24:48;;;;;;;4.80;2.22;;;13.80;99.90;;;;;;5026109;28;20042;-80
2022/07/15 01:27:20;;;;;;;2.35;1.70;;;13.80;99.60;;;;;;5015440;28;20046;-80
2022/07/15 01:29:48;;;;;;;4.13;2.70;;;13.80;99.40;;;;;;5009009;28;20395;-81
2022/07/15 01:32:16;;;;;;;4.57;2.15;;;13.80;99.80;;;;;;5010240;28;20046;-81
2022/07/15 01:34:42;;;;;;;4.40;2.03;;;13.70;99.80;;;;;;5011102;28;20030;-81
2022/07/15 01:37:09;;;;;;;4.80;2.17;;;13.30;99.90;;;;;;5010855;28;20050;-81
2022/07/15 01:39:40;;;;;;;;;;;13.10;99.90;;;;;;5014819;28;20053;-81
2022/07/15 01:42:06;;;;;;;4.32;2.65;;;12.90;99.90;;;;;;5030653;28;19909;-80
2022/07/15 01:44:33;;;;;;;5.88;2.60;;;13.10;99.90;;;;;;5017351;28;20638;-80
2022/07/15 01:47:00;;;;;;;5.93;2.00;;;13.00;99.90;;;;;;5007731;28;20387;-80
2022/07/15 01:49:31;;;;;;;4.45;2.47;;;12.90;99.90;;;;;;5015726;28;20030;-79
2022/07/15 01:51:59;;;;;;;4.45;2.35;;;12.90;99.90;;;;;;5014242;28;20033;-80
2022/07/15 01:54:28;;;;;;;4.40;2.35;;;12.90;99.90;;;;;;5019771;28;20022;-80
2022/07/15 01:56:57;;;;;;;6.32;2.47;;;12.90;99.90;;;;;;5028888;28;20383;-81
2022/07/15 01:59:24;;;;;;;4.00;2.58;;;12.80;99.90;;;;;;5030529;28;20022;-81
2022/07/15 02:01:54;;;;;;;4.68;2.95;;;12.90;99.90;;;;;;5013828;28;20053;-81
2022/07/15 02:04:21;;;;;;;5.03;2.17;;;12.80;99.90;;;;;;4997172;28;20042;-81
2022/07/15 02:06:48;;;;;;;5.30;2.50;;;12.70;99.90;;;;;;5013957;28;20387;-81
2022/07/15 02:09:17;;;;;;;7.35;2.33;;;12.70;99.90;;;;;;4997948;28;20053;-81
2022/07/15 02:11:46;;;;;;;5.88;2.63;;;12.80;99.90;;;;;;5008973;28;20052;-79
2022/07/15 02:14:13;;;;;;;3.72;2.40;;;12.80;99.90;;;;;;5012551;28;20045;-79
2022/07/15 02:16:40;;;;;;;4.70;2.25;;;12.80;99.90;;;;;;4996296;28;20057;-80
2022/07/15 02:19:11;;;;;;;4.63;2.65;;;12.80;99.90;;;;;;5009384;28;20431;-80
2022/07/15 02:21:37;;;;;;;6.30;2.67;;;12.80;99.90;;;;;;4991684;28;20064;-80
2022/07/15 02:24:04;;;;;;;6.47;2.90;;;12.80;99.90;;;;;;4995912;28;20042;-79
2022/07/15 02:26:31;;;;;;;8.35;3.33;;;12.80;99.90;;;;;;4991174;28;20046;-80
2022/07/15 02:28:58;;;;;;;8.85;2.97;;;12.90;99.90;;;;;;4995608;28;20403;-80
2022/07/15 02:31:27;;;;;;;6.07;2.80;;;12.90;99.90;;;;;;5013043;28;20042;-81
2022/07/15 02:33:54;;;;;;;14.45;3.38;;;12.80;99.90;;;;;;4980859;28;20049;-80
2022/07/15 02:36:21;;;;;;;3.10;2.45;;;12.70;99.90;;;;;;5013066;28;20038;-80
2022/07/15 02:38:48;;;;;;;5.40;2.28;;;12.70;99.90;;;;;;4991956;28;20064;-82
2022/07/15 02:41:16;;;;;;;4.63;2.30;;;12.80;99.90;;;;;;4980437;28;20046;-80
2022/07/15 02:43:45;;;;;;;4.85;3.35;;;12.90;99.90;;;;;;4980829;28;20038;-83
2022/07/15 02:46:12;;;;;;;3.28;2.28;;;12.90;99.90;;;;;;4994708;28;20376;-81
2022/07/15 02:48:38;;;;;;;4.43;2.38;;;13.00;99.90;;;;;;5013999;28;20451;-80
2022/07/15 02:51:05;;;;;;;5.88;2.50;;;12.90;99.90;;;;;;4993269;28;20048;-80
2022/07/15 02:53:32;;;;;;;4.72;2.65;;;13.00;99.90;;;;;;5010250;28;20052;-80
2022/07/15 02:56:03;;;;;;;4.63;2.30;;;13.10;99.90;;;;;;5007519;28;20042;-80
2022/07/15 02:58:30;;;;;;;3.70;2.40;;;13.00;99.90;;;;;;4992842;28;20051;-80
2022/07/15 03:00:58;;;;;;;3.42;2.05;;;12.90;99.90;;;;;;4993204;28;20044;-79
2022/07/15 03:03:29;;;;;;;3.60;2.15;;;12.70;99.90;;;;;;5005757;28;20041;-81
2022/07/15 03:05:57;;;;;;;6.35;2.72;;;12.60;99.90;;;;;;5008045;28;20042;-79
2022/07/15 03:08:24;;;;;;;6.35;2.35;;;12.60;99.90;;;;;;5012969;28;20037;-80
2022/07/15 03:10:51;;;;;;;4.07;2.72;;;12.80;99.90;;;;;;5018820;28;20043;-81
2022/07/15 03:13:18;;;;;;;5.07;3.00;;;12.80;99.90;;;;;;5010815;28;20041;-80
2022/07/15 03:15:44;;;;;;;4.57;2.28;;;12.90;99.90;;;;;;5010779;28;20048;-81
2022/07/15 03:18:11;;;;;;;5.72;2.42;;;12.70;99.90;;;;;;5010551;28;20056;-80
2022/07/15 03:20:37;;;;;;;3.30;2.72;;;12.60;99.90;;;;;;5010723;28;20065;-80
2022/07/15 03:23:04;;;;;;;4.15;2.67;;;12.50;99.90;;;;;;5023053;28;20034;-79
2022/07/15 03:25:31;;;;;;;6.22;3.47;;;12.30;99.90;;;;;;5009261;28;20056;-79
2022/07/15 03:28:03;;;;;;;4.18;2.33;;;12.10;99.90;;;;;;5012468;28;20041;-80
2022/07/15 03:30:33;;;;;;;5.13;2.58;;;12.00;99.90;;;;;;5024554;28;20050;-80
2022/07/15 03:33:00;;;;;;;6.65;2.58;;;12.10;99.90;;;;;;5013409;28;20038;-80
2022/07/15 03:35:26;;;;;;;9.98;2.95;;;12.10;99.90;;;;;;5014289;28;20463;-80
2022/07/15 03:37:53;;;;;;;7.70;2.67;;;11.90;99.90;;;;;;5008835;28;20065;-80
2022/07/15 03:40:19;;;;;;;4.25;2.28;;;11.80;99.90;;;;;;5027943;28;20045;-80
2022/07/15 03:42:45;;;;;;;4.13;2.72;;;11.80;99.90;;;;;;4996629;28;20045;-81
2022/07/15 03:45:11;;;;;;;6.25;3.28;;;11.80;99.90;;;;;;5010131;28;20053;-81
2022/07/15 03:47:38;;;;;;;6.78;3.20;;;11.80;99.90;;;;;;5011942;28;20042;-80
2022/07/15 03:50:09;;;;;;;5.13;3.20;;;11.90;99.90;;;;;;5021239;28;20495;-80
2022/07/15 03:52:37;;;;;;;4.53;2.70;;;11.80;99.90;;;;;;5020176;28;20049;-79
2022/07/15 03:55:06;;;;;;;5.22;2.88;;;11.80;99.90;;;;;;5006670;28;20037;-79
2022/07/15 03:57:32;;;;;;;3.38;2.38;;;11.80;99.90;;;;;;5012881;28;20482;-80
2022/07/15 03:59:59;;;;;;;8.77;3.13;;;11.80;99.90;;;;;;5013314;28;20040;-79
2022/07/15 04:02:25;;;;;;;4.97;2.92;;;11.80;99.90;;;;;;5012470;28;20038;-81
2022/07/15 04:04:52;;;;;;;6.93;3.90;;;11.90;99.90;;;;;;5006053;28;20379;-80
2022/07/15 04:07:18;;;;;;;5.07;2.75;;;11.90;99.90;;;;;;5012133;28;20038;-80
2022/07/15 04:09:44;;;;;;;6.50;3.03;;;12.00;99.90;;;;;;5013733;28;20048;-80
2022/07/15 04:12:11;;;;;;;3.80;2.70;;;12.10;99.90;;;;;;5013146;28;20317;-79
2022/07/15 04:14:39;;;;;;;7.32;2.65;;;12.10;99.90;;;;;;5008920;28;20042;-79
2022/07/15 04:17:06;;;;;;;3.60;2.58;;;12.20;99.90;;;;;;5011880;28;20049;-79
2022/07/15 04:19:35;;;;;;;5.72;2.50;;;12.30;99.90;;;;;;5009293;28;20138;-79
2022/07/15 04:22:04;;;;;;;5.75;3.75;;;12.40;99.90;;;;;;5005669;28;20038;-80
2022/07/15 04:24:37;;;;;;;4.50;2.92;;;12.50;99.90;;;;;;5006012;28;20053;-80
2022/07/15 04:27:03;;;;;;;3.50;2.53;;;12.60;99.90;;;;;;5018076;28;20056;-80
2022/07/15 04:29:29;;;;;;;4.22;2.30;;;12.70;99.90;;;;;;5016973;28;20034;-82
2022/07/15 04:31:56;;;;;;;4.40;2.45;;;12.90;99.90;;;;;;5012746;28;20042;-81
2022/07/15 04:34:29;;;;;;;4.35;2.17;;;13.50;99.90;;;;;;5007826;28;20041;-81
2022/07/15 04:36:55;;;;;;;4.35;2.55;;;14.10;99.90;;;;;;5014329;28;20042;-83
2022/07/15 04:39:22;;;;;;;5.40;2.08;;;14.80;99.90;;;;;;5040262;28;20050;-81
2022/07/15 04:41:50;;;;;;;7.20;2.08;;;15.60;99.20;;;;;;5018834;28;20040;-80
2022/07/15 04:44:16;;;;;;;5.82;2.50;;;16.40;96.50;;;;;;5043134;28;20044;-82
2022/07/15 04:46:43;;;;;;;3.10;1.45;;;16.90;94.30;;;;;;5027775;28;20045;-81
2022/07/15 04:52:09;;;;;;;6.15;1.30;;;17.50;91.90;;;;;;5011356;28;20045;-83
2022/07/15 04:54:39;;;;;;;5.22;1.92;;;17.40;92.00;;;;;;4994232;28;20041;-83
2022/07/15 04:57:07;;;;;;;6.68;1.90;;;17.60;91.60;;;;;;5010657;28;20050;-83
2022/07/15 04:59:35;;;;;;;3.10;1.17;;;17.80;90.60;;;;;;5026485;28;20081;-83
2022/07/15 05:02:02;;;;;;;9.75;2.22;;;18.20;90.10;;;;;;5005339;28;20046;-83
2022/07/15 05:04:38;;;;;;;4.10;1.90;;;19.30;85.50;;;;;;4992724;28;20403;-83
2022/07/15 05:07:07;;;;;;;7.35;1.67;;;19.70;79.80;;;;;;4998493;28;20049;-82
2022/07/15 05:09:35;;;;;;;4.72;1.60;;;19.50;79.40;;;;;;4994082;28;20053;-81
2022/07/15 05:12:01;;;;;;;6.80;1.50;;;19.40;80.70;;;;;;4993166;28;20048;-80
2022/07/15 05:14:33;;;;;;;3.35;1.35;;;19.90;78.60;;;;;;5005079;28;20049;-82
2022/07/15 05:17:00;;;;;;;4.38;1.60;;;20.10;76.60;;;;;;5004955;28;20042;-81
2022/07/15 05:19:27;;;;;;;8.45;1.33;;;20.20;75.60;;;;;;4994170;28;20049;-83
2022/07/15 05:21:53;;;;;;;4.28;1.33;;;20.80;73.20;;;;;;4996434;28;20044;-82
2022/07/15 05:24:20;;;;;;;5.45;1.58;;;21.10;71.30;;;;;;4992131;28;20061;-83
2022/07/15 05:26:48;;;;;;;6.43;1.20;;;20.50;72.70;;;;;;4994288;28;20038;-83
2022/07/15 05:29:14;;;;;;;5.47;1.55;;;20.30;73.30;;;;;;4993768;28;20058;-82
2022/07/15 05:31:41;;;;;;;3.60;1.10;;;19.90;75.10;;;;;;4991067;28;20057;-82
2022/07/15 05:34:10;;;;;;;5.90;1.30;;;19.00;78.80;;;;;;4992412;28;20042;-86
2022/07/15 05:36:36;;;;;;;4.80;1.50;;;18.20;81.80;;;;;;4993995;28;20057;-82
2022/07/15 05:39:03;;;;;;;4.28;1.40;;;17.70;86.10;;;;;;4991465;28;20050;-76
2022/07/15 05:41:32;;;;;;;4.55;1.25;;;17.40;90.00;;;;;;4993790;28;20053;-75
2022/07/15 05:44:00;;;;;;;7.00;1.58;;;17.50;90.00;;;;;;5009239;28;20061;-75
2022/07/15 05:46:30;;;;;;;;;;;17.30;90.40;;;;;;4983042;28;20053;-76
2022/07/15 05:49:01;;;;;;;3.80;1.20;;;17.30;90.90;;;;;;4987313;28;19910;-75
2022/07/15 05:51:28;;;;;;;11.73;1.67;;;17.70;90.50;;;;;;5009624;28;20037;-75
2022/07/15 05:53:58;;;;;;;5.70;1.27;;;18.20;90.10;;;;;;4991093;28;20054;-75
2022/07/15 05:56:24;;;;;;;6.82;2.05;;;18.20;88.60;;;;;;4992168;28;20455;-75
2022/07/15 05:58:51;;;;;;;4.82;1.15;;;18.90;87.80;;;;;;5000484;28;20053;-76
2022/07/15 06:01:21;;;;;;;4.15;1.48;;;19.90;78.20;;;;;;4993522;28;20042;-74
2022/07/15 06:03:47;;;;;;;6.93;1.60;;;19.90;77.20;;;;;;5006487;28;20057;-75
2022/07/15 06:06:16;;;;;;;3.75;1.45;;;20.80;74.10;;;;;;5016069;28;20046;-75
2022/07/15 06:08:47;;;;;;;7.03;1.20;;;21.40;71.90;;;;;;5017847;28;20069;-75
2022/07/15 06:11:13;;;;;;;7.68;1.35;;;22.50;67.70;;;;;;5010352;28;20026;-76
2022/07/15 06:13:41;;;;;;;3.85;1.52;;;22.10;65.70;;;;;;5025946;28;20415;-76
2022/07/15 06:16:07;;;;;;;3.08;1.05;;;21.50;67.70;;;;;;5011044;28;20033;-75
2022/07/15 06:18:34;;;;;;;4.97;1.70;;;21.40;67.10;;;;;;5009283;28;20046;-76
2022/07/15 06:21:01;;;;;;;2.38;0.98;;;20.90;68.30;;;;;;5022312;28;20034;-75
2022/07/15 06:23:28;;;;;;;5.68;1.33;;;21.30;66.60;;;;;;4993199;28;20053;-75
2022/07/15 06:25:56;;;;;;;5.25;2.13;;;21.60;64.20;;;;;;5014698;28;20034;-75
2022/07/15 06:28:22;;;;;;;6.97;1.05;;;21.00;65.60;;;;;;5027665;28;20056;-75
2022/07/15 06:30:50;;;;;;;4.25;1.10;;;20.90;65.40;;;;;;5014756;28;20479;-75
2022/07/15 06:33:16;;;;;;;2.75;0.80;;;20.70;65.10;;;;;;5013009;28;20046;-75
2022/07/15 06:35:43;;;;;;;3.78;1.08;;;20.50;64.80;;;;;;4968712;28;20051;-75
2022/07/15 06:38:09;;;;;;;3.40;0.93;;;19.70;66.60;;;;;;4956352;28;20457;-77
2022/07/15 06:40:36;;;;;;;3.22;0.90;;;19.00;69.20;;;;;;4993737;28;20039;-76
2022/07/15 06:43:02;;;;;;;4.20;0.82;;;18.80;70.30;;;;;;4979621;28;20043;-75
2022/07/15 06:45:48;;;;;;;7.15;1.00;;;19.70;68.70;;;;;;4975416;28;20031;-75
2022/07/15 06:48:16;;;;;;;4.75;0.90;;;20.30;66.40;;;;;;4956271;28;20054;-74
2022/07/15 06:50:43;;;;;;;3.28;1.17;;;21.50;63.90;;;;;;4971584;28;20116;-75
2022/07/15 06:53:09;;;;;;;4.78;0.98;;;22.10;61.30;;;;;;4957187;28;20043;-75
2022/07/15 06:55:36;;;;;;;2.75;0.90;;;21.80;61.20;;;;;;4955829;28;20408;-75
2022/07/15 06:58:05;;;;;;;13.65;2.30;;;21.80;60.70;;;;;;4955744;28;20484;-74
2022/07/15 07:00:32;;;;;;;119.82;19.00;;;21.50;61.60;;;;;;4956655;28;20046;-74
2022/07/15 07:02:58;;;;;;;2.90;0.82;;;20.80;62.40;;;;;;4946529;29;20039;-74
2022/07/15 07:05:25;;;;;;;1.80;0.80;;;20.50;64.80;;;;;;4921341;28;20043;-77
2022/07/15 07:07:51;;;;;;;4.13;1.13;;;21.80;62.20;;;;;;4986390;28;20521;-75
2022/07/15 07:10:18;;;;;;;4.28;1.02;;;23.10;59.40;;;;;;5014179;28;20044;-75
2022/07/15 07:12:46;;;;;;;9.27;2.30;;;23.70;58.20;;;;;;4992695;28;20046;-75
2022/07/15 07:15:12;;;;;;;5.40;1.05;;;23.90;55.90;;;;;;5013762;28;20391;-75
2022/07/15 07:17:39;;;;;;;3.80;0.85;;;22.40;56.60;;;;;;5012734;28;20034;-75
2022/07/15 07:20:05;;;;;;;1.65;0.82;;;22.00;58.50;;;;;;5013718;28;20046;-75
2022/07/15 07:22:31;;;;;;;19.85;2.65;;;22.60;57.30;;;;;;5014557;28;20041;-74
2022/07/15 07:24:59;;;;;;;2.42;0.60;;;21.90;58.30;;;;;;5014205;28;20034;-75
2022/07/15 07:27:26;;;;;;;2.83;0.82;;;21.30;59.30;;;;;;5012426;28;20029;-75
2022/07/15 07:29:52;;;;;;;1.83;0.77;;;21.70;59.70;;;;;;5012776;28;20037;-75
2022/07/15 07:32:18;;;;;;;2.90;0.90;;;22.00;58.10;;;;;;5014141;28;20041;-76
2022/07/15 07:34:44;;;;;;;4.10;1.08;;;21.10;59.20;;;;;;5013386;28;20034;-74
2022/07/15 07:37:11;;;;;;;3.08;1.35;;;21.20;59.60;;;;;;4992773;28;20033;-80
2022/07/15 07:39:37;;;;;;;2.60;0.88;;;22.40;58.00;;;;;;5012696;28;20053;-74
2022/07/15 07:42:03;;;;;;;10.80;2.35;;;22.00;57.50;;;;;;5012660;28;20033;-74
2022/07/15 07:44:29;;;;;;;6.00;1.15;;;21.70;58.10;;;;;;5013643;28;20034;-74
2022/07/15 07:46:56;;;;;;;6.57;1.40;;;21.80;59.10;;;;;;5011371;28;20030;-74
2022/07/15 07:49:22;;;;;;;4.47;0.85;;;21.40;58.90;;;;;;5012879;28;20042;-74
2022/07/15 07:51:48;;;;;;;1.73;0.60;;;20.60;60.70;;;;;;5012631;28;20391;-74
2022/07/15 07:54:14;;;;;;;2.97;0.80;;;20.90;60.20;;;;;;5012985;28;20045;-75
2022/07/15 07:56:42;;;;;;;5.50;0.93;;;23.20;57.10;;;;;;5011671;28;20040;-75
2022/07/15 07:59:09;;;;;;;3.15;0.90;;;23.30;55.80;;;;;;4988234;28;20065;-76
2022/07/15 08:01:35;;;;;;;3.75;0.70;;;22.70;56.20;;;;;;5012524;28;20038;-75
2022/07/15 08:04:02;;;;;;;2.25;0.60;;;21.70;57.70;;;;;;5012370;28;20514;-77
2022/07/15 08:06:28;;;;;;;1.73;0.70;;;21.30;59.30;;;;;;4994437;28;20038;-75
2022/07/15 08:08:54;;;;;;;3.78;0.95;;;21.60;60.00;;;;;;5011680;28;20037;-74
2022/07/15 08:11:21;;;;;;;5.03;1.63;;;21.30;59.60;;;;;;5012236;28;20037;-75
2022/07/15 08:13:47;;;;;;;3.03;0.90;;;20.80;60.60;;;;;;5012991;28;20026;-75
2022/07/15 08:16:13;;;;;;;3.53;1.52;;;21.00;59.20;;;;;;5012230;28;20130;-75
2022/07/15 08:18:40;;;;;;;5.78;0.80;;;22.40;58.30;;;;;;5011811;28;20375;-78
2022/07/15 08:21:06;;;;;;;1.73;0.68;;;22.80;56.80;;;;;;5012370;28;20470;-80
2022/07/15 08:23:32;;;;;;;17.90;1.63;;;22.50;56.70;;;;;;5012045;28;20030;-80
2022/07/15 08:25:59;;;;;;;2.15;0.85;;;22.20;57.40;;;;;;5013048;28;20378;-77
2022/07/15 08:28:25;;;;;;;7.45;1.00;;;22.00;58.00;;;;;;5009241;28;20034;-80
2022/07/15 08:30:52;;;;;;;6.18;1.05;;;22.50;57.30;;;;;;5012604;28;20046;-78
2022/07/15 08:33:18;;;;;;;2.88;0.50;;;22.20;57.20;;;;;;5000949;28;20027;-81
2022/07/15 08:35:45;;;;;;;2.10;0.60;;;23.00;57.40;;;;;;4995309;28;20045;-79
2022/07/15 08:38:11;;;;;;;1.95;1.00;;;23.30;55.40;;;;;;5010738;28;20061;-79
2022/07/15 08:40:39;;;;;;;6.10;2.17;;;23.30;55.00;;;;;;5021633;28;20057;-78
2022/07/15 08:43:08;;;;;;;2.97;1.08;;;23.40;56.00;;;;;;5020817;28;20048;-78
2022/07/15 08:45:37;;;;;;;4.13;0.70;;;23.50;55.20;;;;;;5020857;28;20038;-79
2022/07/15 08:48:07;;;;;;;3.10;0.60;;;23.70;54.90;;;;;;5020419;28;20025;-76
2022/07/15 08:50:35;;;;;;;3.63;0.93;;;23.20;54.80;;;;;;5012665;28;20049;-79
2022/07/15 08:53:02;;;;;;;5.20;1.35;;;22.90;55.00;;;;;;5016531;28;20036;-80
2022/07/15 08:55:29;;;;;;;4.13;0.77;;;22.60;55.60;;;;;;5016745;28;20034;-78
2022/07/15 08:57:56;;;;;;;4.00;0.80;;;22.90;56.20;;;;;;5012268;28;20065;-79
2022/07/15 09:00:30;;;;;;;2.78;0.80;;;23.30;54.60;;;;;;5019024;28;20061;-79
2022/07/15 09:03:01;;;;;;;1.67;0.47;;;22.60;55.40;;;;;;5014407;28;20044;-81
2022/07/15 09:05:33;;;;;;;23.13;3.55;;;22.70;55.10;;;;;;4995796;28;20507;-80
2022/07/15 09:08:13;;;;;;;3.38;0.90;;;22.90;56.10;;;;;;5006996;28;20042;-77
2022/07/15 09:10:42;;;;;;;4.07;1.10;;;24.20;54.40;;;;;;5033800;28;20033;-78
2022/07/15 09:13:11;;;;;;;3.25;0.63;;;25.20;52.70;;;;;;5028581;28;20459;-78
2022/07/15 09:15:41;;;;;;;1.65;0.70;;;24.20;53.70;;;;;;5024017;28;20042;-78
2022/07/15 09:18:12;;;;;;;7.68;0.90;;;23.90;53.60;;;;;;5017233;28;20029;-78
2022/07/15 09:20:41;;;;;;;2.95;0.80;;;24.00;53.50;;;;;;5019520;28;20038;-77
2022/07/15 09:23:09;;;;;;;5.55;1.30;;;23.70;54.60;;;;;;5019721;28;20030;-79
2022/07/15 09:25:37;;;;;;;5.68;1.00;;;23.90;53.60;;;;;;4996809;28;20029;-80
2022/07/15 09:28:06;;;;;;;7.28;1.80;;;24.00;53.30;;;;;;5010668;28;20044;-80
2022/07/15 09:33:36;;;;;;;2.67;1.13;;;23.80;53.90;;;;;;5007065;28;20264;-77
2022/07/15 09:36:13;;;;;;;2.90;0.90;;;24.50;53.40;;;;;;5012320;28;20459;-78
2022/07/15 09:38:45;;;;;;;7.65;0.68;;;25.20;52.40;;;;;;5010873;28;20406;-79
2022/07/15 09:41:20;;;;;;;2.15;0.65;;;25.20;52.20;;;;;;4990005;28;20037;-77
2022/07/15 09:43:52;;;;;;;2.38;0.80;;;25.10;52.70;;;;;;5016261;28;20359;-77
2022/07/15 09:46:20;;;;;;;2.92;0.55;;;24.80;52.70;;;;;;5009240;28;20053;-78
2022/07/15 09:48:49;;;;;;;4.75;0.77;;;23.70;54.40;;;;;;5003714;28;20053;-78
2022/07/15 09:51:16;;;;;;;2.88;1.42;;;22.90;55.10;;;;;;5015804;28;20486;-79
2022/07/15 09:53:44;;;;;;;4.75;1.35;;;22.20;57.10;;;;;;5014715;28;20026;-78
2022/07/15 09:56:14;;;;;;;4.30;1.15;;;21.90;57.10;;;;;;5012513;28;20026;-79
2022/07/15 09:58:42;;;;;;;;;;;21.90;57.20;;;;;;5013417;28;20110;-79
2022/07/15 10:01:10;;;;;;;4.00;0.85;;;23.80;54.90;;;;;;5015775;28;20290;-76
2022/07/15 10:03:38;;;;;;;1.90;0.85;;;24.20;53.50;;;;;;5015800;28;20045;-77
2022/07/15 10:06:05;;;;;;;5.72;1.00;;;23.20;54.50;;;;;;5015960;28;20379;-80
2022/07/15 10:08:32;;;;;;;2.45;0.77;;;22.70;55.30;;;;;;5014323;28;20034;-78
2022/07/15 10:10:59;;;;;;;3.13;0.90;;;23.20;55.50;;;;;;5015473;28;20041;-77
2022/07/15 10:13:56;;;;;;;5.65;1.27;;;23.30;55.80;;;;;;5014903;28;20041;-80
2022/07/15 10:16:40;;;;;;;4.60;0.95;;;23.40;55.90;;;;;;5008556;28;20033;-80
2022/07/15 10:19:24;;;;;;;2.65;0.93;;;23.70;54.40;;;;;;4989278;28;20057;-78
2022/07/15 10:22:08;;;;;;;2.92;0.80;;;23.50;54.70;;;;;;5011848;28;20026;-79
2022/07/15 10:24:56;;;;;;;2.85;1.55;;;23.90;53.40;;;;;;5018953;28;20030;-75
2022/07/15 10:27:34;;;;;;;3.08;1.20;;;23.80;53.40;;;;;;5011527;28;20042;-78
2022/07/15 10:30:06;;;;;;;3.92;1.20;;;23.50;53.10;;;;;;5013902;28;20046;-75
2022/07/15 10:33:03;;;;;;;3.72;1.02;;;23.90;53.00;;;;;;5014631;28;20038;-76
2022/07/15 10:35:50;;;;;;;1.58;0.80;;;23.70;53.30;;;;;;5013894;28;20034;-76
2022/07/15 10:38:25;;;;;;;3.25;0.82;;;23.20;53.80;;;;;;5006295;28;20033;-75
2022/07/15 10:41:06;;;;;;;4.32;1.20;;;23.20;53.50;;;;;;5014542;28;20053;-76
2022/07/15 10:43:41;;;;;;;4.85;1.35;;;23.50;52.80;;;;;;5013725;28;20030;-76
2022/07/15 10:46:16;;;;;;;5.00;2.13;;;23.30;53.10;;;;;;5014234;28;20033;-76
2022/07/15 10:48:52;;;;;;;3.50;1.00;;;23.20;53.10;;;;;;5006168;28;20387;-74
2022/07/15 10:51:36;;;;;;;3.67;1.35;;;23.10;53.60;;;;;;5014439;28;20041;-75
2022/07/15 10:54:29;;;;;;;5.03;1.20;;;23.60;54.20;;;;;;5014686;28;20029;-75
2022/07/15 10:56:55;;;;;;;3.85;1.10;;;23.70;53.60;;;;;;4977834;28;20046;-75
2022/07/15 10:59:24;;;;;;;2.42;1.00;;;23.60;54.10;;;;;;5012451;28;20041;-75
2022/07/15 11:02:12;;;;;;;3.75;1.00;;;23.60;54.60;;;;;;5014142;28;20026;-76
2022/07/15 11:04:38;;;;;;;5.68;0.98;;;24.00;51.90;;;;;;5008038;28;20049;-75
2022/07/15 11:07:07;;;;;;;4.78;1.13;;;24.10;53.00;;;;;;5013565;28;20403;-75
2022/07/15 11:10:07;;;;;;;7.57;1.35;;;24.50;53.30;;;;;;5016577;28;20038;-87
2022/07/15 11:12:34;;;;;;;3.97;1.10;;;23.80;52.10;;;;;;5015514;28;20503;-85
2022/07/15 11:15:16;;;;;;;7.90;1.42;;;23.30;52.60;;;;;;5021601;28;20041;-82
2022/07/15 11:17:49;;;;;;;1.63;1.02;;;23.00;53.30;;;;;;5015388;28;20045;-83
2022/07/15 11:20:21;;;;;;;3.05;1.00;;;23.50;52.70;;;;;;5014048;28;20038;-87
2022/07/15 11:22:50;;;;;;;5.18;2.05;;;23.50;52.60;;;;;;4997754;28;20042;-83
2022/07/15 11:25:20;;;;;;;1.98;1.02;;;23.40;52.90;;;;;;4999492;28;20058;-80
2022/07/15 11:27:55;;;;;;;2.63;0.90;;;23.40;52.50;;;;;;5010270;28;20034;-79
2022/07/15 11:30:22;;;;;;;5.50;1.45;;;23.20;54.10;;;;;;5012715;28;20036;-81
2022/07/15 11:32:55;;;;;;;4.05;1.42;;;23.80;52.60;;;;;;5016234;28;20038;-88
2022/07/15 11:35:22;;;;;;;4.78;1.23;;;24.10;52.80;;;;;;4996494;28;20475;-84
2022/07/15 11:37:56;;;;;;;4.50;1.38;;;24.20;51.70;;;;;;5013532;28;20367;-86
2022/07/15 11:45:59;;;;;;;1.77;1.02;;;23.70;51.00;;;;;;4987816;28;20069;-81
2022/07/15 11:48:26;;;;;;;5.47;1.30;;;23.40;51.00;;;;;;5002285;28;20038;-79
2022/07/15 11:50:55;;;;;;;4.45;1.40;;;23.50;51.50;;;;;;5013280;28;20033;-84
2022/07/15 11:53:23;;;;;;;1.90;1.05;;;23.70;52.40;;;;;;5013340;28;20044;-83
2022/07/15 11:55:59;;;;;;;3.75;1.20;;;23.90;51.90;;;;;;5013818;28;20030;-81
2022/07/15 11:58:38;;;;;;;4.50;1.20;;;24.30;51.80;;;;;;5007222;28;20045;-79
2022/07/15 12:01:13;;;;;;;4.80;1.37;;;24.30;50.70;;;;;;5014238;28;20056;-83
2022/07/15 12:03:48;;;;;;;5.57;1.17;;;23.90;51.20;;;;;;5012862;28;20057;-82
2022/07/15 12:06:16;;;;;;;5.97;1.10;;;23.90;51.70;;;;;;5013967;28;20030;-83
2022/07/15 12:08:51;;;;;;;3.45;1.13;;;24.50;49.80;;;;;;5022705;28;20042;-84
2022/07/15 12:11:30;;;;;;;3.03;1.77;;;24.50;50.40;;;;;;5022862;28;20033;-82
2022/07/15 12:14:05;;;;;;;3.57;1.00;;;24.60;49.60;;;;;;5010972;28;20037;-84
2022/07/15 12:16:39;;;;;;;6.43;1.48;;;24.60;49.10;;;;;;5017785;28;20285;-84
2022/07/15 12:19:08;;;;;;;5.10;1.60;;;24.30;50.10;;;;;;5002643;28;20034;-85
2022/07/15 12:21:36;;;;;;;3.03;1.48;;;24.40;50.30;;;;;;5027043;28;20030;-85
2022/07/15 12:24:17;;;;;;;3.92;1.80;;;24.60;49.70;;;;;;5019511;28;20036;-78
2022/07/15 12:26:49;;;;;;;3.42;1.63;;;24.80;50.40;;;;;;5021643;28;20033;-84
2022/07/15 12:29:18;;;;;;;2.80;1.13;;;24.80;50.00;;;;;;5021737;28;20025;-86
2022/07/15 12:31:56;;;;;;;2.75;1.60;;;24.30;51.00;;;;;;5028901;28;20045;-83
2022/07/15 12:34:43;;;;;;;4.78;1.50;;;24.70;50.50;;;;;;5024314;28;20029;-85
2022/07/15 12:37:09;;;;;;;6.25;1.48;;;24.70;50.00;;;;;;5033638;28;20029;-86
2022/07/15 12:39:58;;;;;;;3.28;1.65;;;24.70;50.10;;;;;;5009881;28;20061;-87
2022/07/15 12:42:26;;;;;;;3.70;1.38;;;24.90;50.00;;;;;;5012846;28;20037;-83
2022/07/15 12:45:15;;;;;;;4.22;1.20;;;24.70;49.90;;;;;;5013089;28;20038;-84
2022/07/15 12:48:00;;;;;;;4.20;1.30;;;24.60;50.20;;;;;;4994782;28;20046;-82
2022/07/15 12:50:28;;;;;;;2.70;1.13;;;24.40;51.10;;;;;;4990962;28;20037;-84
2022/07/15 12:52:56;;;;;;;3.30;1.70;;;24.50;50.60;;;;;;5014647;28;20038;-87
2022/07/15 12:55:25;;;;;;;5.60;1.42;;;24.20;50.00;;;;;;5000391;28;20026;-86
2022/07/15 12:58:03;;;;;;;3.42;1.52;;;23.90;50.10;;;;;;4993416;28;20683;-85
2022/07/15 13:00:29;;;;;;;3.10;1.35;;;23.90;50.10;;;;;;5016356;28;20046;-84
2022/07/15 13:03:06;;;;;;;4.82;1.58;;;23.80;49.70;;;;;;4978642;28;1114536;-82
2022/07/15 13:05:43;;;;;;;3.83;1.67;;;23.60;50.20;;;;;;5023187;28;20034;-82
2022/07/15 13:08:18;;;;;;;4.47;1.20;;;23.60;50.10;;;;;;5017036;28;20038;-82
2022/07/15 13:10:48;;;;;;;4.68;1.50;;;23.60;50.40;;;;;;5014766;28;20494;-84